Tiempo atmosférico en la estación meteorológica de Forua, Bizkaia (45 m.)



Fecha
DESCASC
Temp. máxima en grados centígrados (hora)
DESCASC
Temp. mínima en grados centígrados (hora)
DESCASC
Temp. media en grados centígrados
DESCASC
Racha de viento máxima en m/sg (hora)
DESCASC
Velocidad máxima media en intervalos de 10 minutos(hora)
DESCASC
Precipitaciones diarias en mm
DESCASC
Precipitaciones de 00:00 a 06:00 en mm
DESCASC
Precipitaciones de 06:00 a 12:00 en mm
DESCASC
Precipitaciones de 12:00 a 18:00 en mm
DESCASC
Precipitaciones de 18:00 a 24:00 en mm
DESCASC
18-10-2018 18.5 (17:10) 14.5 (07:40) 16.5 5.28 (13:00) 2.78 (18:10) 0 0 0 0 0
17-10-2018 20.1 (13:30) 9 (09:00) 14.6 7.5 (16:50) 4.44 (15:40) 0 0 0 0 0
16-10-2018 20 (15:30) 11.1 (04:20) 15.6 6.67 (14:00) 4.44 (14:00) 0 0 0 0 0
15-10-2018 21.5 (14:50) 9 (08:30) 15.3 8.06 (16:20) 4.72 (17:40) 0 0 0 0 0
14-10-2018 25.6 (00:20) 11.6 (00:00) 18.6 17.5 (11:00) 10.56 (10:50) 25.6 0 19 6.6 0
13-10-2018 28.1 (17:00) 18.7 (00:00) 23.4 12.78 (23:59) 7.22 (23:59) 0 0 0 0 0
12-10-2018 27.6 (16:10) 14.1 (00:00) 20.9 17.22 (11:20) 9.17 (11:30) 0 0 0 0 0
11-10-2018 26.4 (15:10) 15 (23:59) 20.7 11.67 (16:20) 6.11 (16:30) 0 0 0 0 0
10-10-2018 24.4 (15:10) 12.1 (00:00) 18.3 11.67 (17:00) 6.39 (17:00) 0 0 0 0 0
09-10-2018 20 (15:50) 10.6 (08:30) 15.3 6.67 (18:10) 4.44 (18:20) 0.6 0.6 0 0 0
08-10-2018 18.3 (14:40) 13.2 (08:40) 15.7 8.06 (00:30) 4.72 (00:30) 11.4 11 0 0 0.4
07-10-2018 14.4 (23:59) 11.5 (08:00) 12.9 13.61 (15:00) 6.67 (13:00) 23.4 6.6 4.8 3.6 8.4
06-10-2018 21.5 (15:20) 8.9 (08:20) 15.2 16.67 (17:50) 6.67 (17:30) 2.6 0 0 0 2.6
05-10-2018 28.7 (14:10) 10.1 (06:10) 19.4 8.61 (16:20) 5 (16:10) 0 0 0 0 0
04-10-2018 22.5 (16:10) 10.3 (00:00) 16.4 7.22 (18:00) 5.28 (18:00) 0 0 0 0 0
03-10-2018 20.6 (16:20) 6.9 (00:00) 13.8 6.39 (17:50) 3.89 (13:40) 0 0 0 0 0
02-10-2018 18.7 (13:40) 7.4 (00:00) 13.1 7.78 (14:50) 3.89 (14:10) 0 0 0 0 0
01-10-2018 19.5 (14:20) 13 (00:00) 16.3 8.33 (14:40) 5.28 (15:00) 0.2 0 0 0.2 0
30-09-2018 22.7 (14:50) 13 (00:00) 17.9 6.67 (16:50) 4.17 (16:40) 0 0 0 0 0
29-09-2018 23.4 (13:10) 13.7 (00:00) 18.5 6.94 (14:10) 4.17 (15:50) 0 0 0 0 0
28-09-2018 24.8 (15:40) 14.9 (00:00) 19.8 6.94 (16:30) 4.72 (14:10) 0 0 0 0 0
27-09-2018 31.2 (15:10) 17.3 (00:00) 24.3 8.33 (11:30) 5 (16:50) 0 0 0 0 0
26-09-2018 30.3 (16:50) 8 (00:00) 19.1 8.89 (14:10) 4.72 (14:10) 0 0 0 0 0
25-09-2018 19.7 (15:20) 8.6 (00:00) 14.2 6.39 (14:50) 3.61 (16:20) 0 0 0 0 0
24-09-2018 19.2 (00:00) 10 (00:00) 14.6 7.5 (12:30) 4.72 (12:20) 4.8 3.8 1 0 0
23-09-2018 25 (15:00) 14.6 (08:00) 19.8 9.72 (15:30) 5.28 (15:30) 0.6 0 0 0 0.6
22-09-2018 27.5 (17:50) 16.8 (08:50) 22.1 6.67 (16:20) 4.17 (16:10) 0 0 0 0 0
21-09-2018 24.8 (13:00) 15.3 (06:00) 20 7.5 (17:00) 3.89 (15:50) 0.2 0 0 0 0.2
20-09-2018 26.7 (14:00) 18.4 (00:00) 22.6 7.78 (17:50) 5.28 (17:40) 0 0 0 0 0

Gráficas

Temp. máximas Temp. mínimas Temp. medias Precipitaciones Rachas de viento máximas Velocidades máximas media en intervalos de 10 minutos

Datos horarios

Fecha y hora oficial Temperatura (ºC) Velocidad del viento (km/h) Dirección del viento Racha (km/h) Dirección de racha Precipitación (mm) Presión (hPa) Tendencia (hPa) Humedad (%)
2018-10-19 23:00:00 14.9 4 Sudoeste 8 Sudoeste 0 -- -- 97
2018-10-19 22:00:00 15 2 Sudoeste 5 Nordeste 0 -- -- 96
2018-10-19 21:00:00 15.6 2 Oeste 6 Sudoeste 0 -- -- 93
2018-10-19 20:00:00 16.4 3 Norte 6 Norte 0 -- -- 91
2018-10-19 19:00:00 17.8 0 Calma 14 Nordeste 0 -- -- 87
2018-10-19 18:00:00 19 6 Nordeste 18 Este 0 -- -- 84
2018-10-19 17:00:00 18.7 9 Nordeste 19 Nordeste 0 -- -- 86
2018-10-19 16:00:00 19.3 10 Nordeste 18 Nordeste 0 -- -- 86
2018-10-19 15:00:00 19.9 10 Nordeste 19 Este 0 -- -- 84
2018-10-19 14:00:00 20 11 Nordeste 24 Este 0 -- -- 84
2018-10-19 13:00:00 19.8 4 Noroeste 10 Oeste 0 -- -- 85
2018-10-19 12:00:00 19.1 3 Sudeste 9 Oeste 0 -- -- 89
2018-10-19 11:00:00 17.1 0 Calma 2 Sudoeste 0 -- -- 100
2018-10-19 10:00:00 16.1 0 Calma 0 Calma 0 -- -- 100
2018-10-19 09:00:00 15.5 0 Calma 0 Calma 0 -- -- 100
2018-10-19 08:00:00 15.7 0 Calma 0 Calma 0 -- -- 100
2018-10-19 07:00:00 15.9 0 Calma 2 Sudoeste 0 -- -- 99
2018-10-19 06:00:00 15.7 0 Calma 4 Este 0 -- -- 100
2018-10-19 05:00:00 15.8 3 Sur 7 Sudoeste 0 -- -- 99
2018-10-19 04:00:00 16.1 3 Noroeste 4 Noroeste 0 -- -- 99
2018-10-19 03:00:00 16.3 3 Oeste 6 Oeste 0 -- -- 99
2018-10-19 02:00:00 16.2 2 Oeste 4 Oeste 0 -- -- 98
2018-10-19 01:00:00 16.3 0 Calma 5 Norte 0 -- -- 98
2018-10-19 00:00:00 16.5 0 Calma 4 Norte 0 -- -- 97
2018-10-18 23:00:00 16.8 0 Calma 8 Norte 0 -- -- 97
2018-10-18 22:00:00 16.9 4 Norte 6 Norte 0 -- -- 97
2018-10-18 21:00:00 17 2 Norte 8 Nordeste 0 -- -- 96
2018-10-18 20:00:00 17.4 5 Nordeste 10 Nordeste 0 -- -- 94
2018-10-18 19:00:00 17.8 5 Nordeste 16 Nordeste 0 -- -- 93
2018-10-18 18:00:00 18.3 8 Nordeste 15 Nordeste 0 -- -- 91
2018-10-18 17:00:00 18.2 6 Nordeste 14 Norte 0 -- -- 95
2018-10-18 16:00:00 17.5 6 Nordeste 15 Nordeste 0 -- -- 97
2018-10-18 15:00:00 17.3 6 Nordeste 16 Nordeste 0 -- -- 96
2018-10-18 14:00:00 17.4 9 Nordeste 19 Nordeste 0 -- -- 96
2018-10-18 13:00:00 16.9 9 Nordeste 19 Nordeste 0 -- -- 98
2018-10-18 12:00:00 16.4 0 Calma 0 Calma 0 -- -- 98
2018-10-18 11:00:00 16.1 0 Calma 2 Oeste 0 -- -- 98
2018-10-18 10:00:00 15.3 0 Calma 2 Oeste 0 -- -- 100
2018-10-18 09:00:00 14.8 0 Calma 2 Oeste 0 -- -- 100
2018-10-18 08:00:00 14.6 0 Calma 0 Calma 0 -- -- 100
2018-10-18 07:00:00 14.8 0 Calma 0 Calma 0 -- -- 100
2018-10-18 06:00:00 14.8 0 Calma 0 Calma 0 -- -- 100
2018-10-18 05:00:00 14.6 0 Calma 4 Oeste 0 -- -- 99
2018-10-18 04:00:00 14.7 2 Sur 5 Sudeste 0 -- -- 98
2018-10-18 03:00:00 15.2 2 Sudoeste 7 Oeste 0 -- -- 97
2018-10-18 02:00:00 15.3 0 Calma 8 Oeste 0 -- -- 96
2018-10-18 01:00:00 15.4 3 Oeste 5 Oeste 0 -- -- 96
2018-10-18 00:00:00 15.7 0 Calma 9 Nordeste 0 -- -- 95
2018-10-17 23:00:00 16.2 3 Nordeste 8 Nordeste 0 -- -- 93
2018-10-17 22:00:00 16.1 5 Nordeste 12 Nordeste 0 -- -- 93
2018-10-17 21:00:00 15.5 5 Nordeste 13 Este 0 -- -- 95
2018-10-17 20:00:00 15.3 4 Este 10 Sudeste 0 -- -- 92
2018-10-17 19:00:00 16.3 5 Este 18 Este 0 -- -- 88
2018-10-17 18:00:00 17.4 9 Este 27 Sudeste 0 -- -- 84
2018-10-17 17:00:00 18.5 16 Sudeste 27 Este 0 -- -- 80
2018-10-17 16:00:00 19.3 14 Este 27 Este 0 -- -- 79
2018-10-17 15:00:00 19.7 13 Este 25 Este 0 -- -- 78
2018-10-17 14:00:00 19.9 13 Este 21 Este 0 -- -- 77
2018-10-17 13:00:00 19.4 8 Este 18 Sudeste 0 -- -- 78
2018-10-17 12:00:00 16.7 4 Norte 7 Norte 0 -- -- 95
2018-10-17 11:00:00 13.9 0 Calma 6 Oeste 0 -- -- 100
2018-10-17 10:00:00 10.6 4 Sudoeste 9 Oeste 0 -- -- 100
2018-10-17 09:00:00 9 3 Sudoeste 9 Sudoeste 0 -- -- 100
2018-10-17 08:00:00 9.4 6 Sudoeste 9 Oeste 0 -- -- 100
2018-10-17 07:00:00 10 4 Sudoeste 9 Sudoeste 0 -- -- 100
2018-10-17 06:00:00 10.6 6 Sudoeste 8 Sudoeste 0 -- -- 100
2018-10-17 05:00:00 10.4 4 Sur 9 Oeste 0 -- -- 100
2018-10-17 04:00:00 10.7 4 Sudoeste 9 Sudoeste 0 -- -- 100
2018-10-17 03:00:00 11 4 Sudoeste 8 Sudoeste 0 -- -- 100
2018-10-17 02:00:00 10.9 5 Sudoeste 8 Oeste 0 -- -- 100
2018-10-17 01:00:00 11.4 4 Sudoeste 6 Sudoeste 0 -- -- 100
2018-10-17 00:00:00 12 5 Sudoeste 6 Sudoeste 0 -- -- 99
2018-10-16 23:00:00 12.6 3 Oeste 6 Oeste 0 -- -- 98
2018-10-16 22:00:00 13.1 4 Nordeste 8 Nordeste 0 -- -- 96
2018-10-16 21:00:00 14.2 3 Este 6 Nordeste 0 -- -- 95
2018-10-16 20:00:00 15.2 3 Nordeste 14 Nordeste 0 -- -- 92
2018-10-16 19:00:00 16.3 9 Norte 15 Norte 0 -- -- 88
2018-10-16 18:00:00 18.3 5 Este 18 Nordeste 0 -- -- 80
2018-10-16 17:00:00 18.5 8 Este 20 Nordeste 0 -- -- 80
2018-10-16 16:00:00 20 13 Nordeste 21 Norte 0 -- -- 78
2018-10-16 15:00:00 19.8 13 Nordeste 22 Nordeste 0 -- -- 78
2018-10-16 14:00:00 19.2 16 Nordeste 24 Norte 0 -- -- 82
2018-10-16 13:00:00 19.2 8 Nordeste 18 Nordeste 0 -- -- 77
2018-10-16 12:00:00 18.6 4 Este 10 Sur 0 -- -- 79
2018-10-16 11:00:00 16.5 4 Noroeste 9 Sudoeste 0 -- -- 90
2018-10-16 10:00:00 13.4 4 Sudoeste 5 Oeste 0 -- -- 100
2018-10-16 09:00:00 12.6 2 Sudoeste 11 Oeste 0 -- -- 100
2018-10-16 08:00:00 12.3 3 Sudoeste 6 Oeste 0 -- -- 100
2018-10-16 07:00:00 11.9 2 Sur 10 Sudoeste 0 -- -- 100
2018-10-16 06:00:00 11.7 3 Sudoeste 8 Sudoeste 0 -- -- 100
2018-10-16 05:00:00 11.4 3 Sudoeste 8 Oeste 0 -- -- 100
2018-10-16 04:00:00 11.4 6 Oeste 8 Sudoeste 0 -- -- 100
2018-10-16 03:00:00 11.4 7 Oeste 9 Oeste 0 -- -- 99
2018-10-16 02:00:00 11.7 7 Oeste 9 Oeste 0 -- -- 99
2018-10-16 01:00:00 12.2 3 Sudoeste 6 Sudoeste 0 -- -- 98
2018-10-16 00:00:00 12.6 5 Sudoeste 11 Oeste 0 -- -- 97
2018-10-15 23:00:00 13.6 6 Sudoeste 9 Sudoeste 0 -- -- 94
2018-10-15 22:00:00 15 3 Nordeste 11 Nordeste 0 -- -- 93
2018-10-15 21:00:00 15.6 3 Nordeste 15 Este 0 -- -- 90
2018-10-15 20:00:00 15.5 8 Nordeste 16 Este 0 -- -- 90
2018-10-15 19:00:00 16.5 10 Este 24 Este 0 -- -- 83
2018-10-15 18:00:00 17.9 14 Este 26 Este 0 -- -- 75
2018-10-15 17:00:00 18.6 15 Este 29 Sudeste 0 -- -- 73
2018-10-15 16:00:00 19.7 12 Sudeste 23 Este 0 -- -- 69
2018-10-15 15:00:00 21.5 5 Noroeste 13 Oeste 0 -- -- 46
2018-10-15 14:00:00 20.5 4 Sur 13 Sudoeste 0 -- -- 54
2018-10-15 13:00:00 19.4 5 Sudoeste 10 Oeste 0 -- -- 61
2018-10-15 12:00:00 17 4 Sur 8 Sur 0 -- -- 71
2018-10-15 11:00:00 13.5 4 Sur 8 Oeste 0 -- -- 89
2018-10-15 10:00:00 12.6 3 Sudoeste 12 Sudoeste 0 -- -- 93
2018-10-15 09:00:00 9.3 3 Sudoeste 9 Oeste 0 -- -- 100
2018-10-15 08:00:00 9.2 7 Sudoeste 13 Sudoeste 0 -- -- 100
2018-10-15 07:00:00 9.7 9 Oeste 13 Sudoeste 0 -- -- 99
2018-10-15 06:00:00 10.2 8 Sudoeste 12 Oeste 0 -- -- 99
2018-10-15 05:00:00 10.7 6 Oeste 10 Sudoeste 0 -- -- 97
2018-10-15 04:00:00 11.7 5 Oeste 13 Sudoeste -- -- -- 95
2018-10-15 03:00:00 12.6 6 Sudoeste 13 Oeste 0 -- -- 92
2018-10-15 02:00:00 12.9 6 Sudoeste 18 Noroeste 0 -- -- 92
2018-10-15 01:00:00 12.3 9 Sudoeste 18 Sudoeste 0 -- -- 95
2018-10-15 00:00:00 12.3 5 Sudoeste 11 Oeste 0 -- -- 94
2018-10-14 23:00:00 11.9 8 Sudoeste 13 Oeste 0 -- -- 95
2018-10-14 22:00:00 11.6 6 Oeste 9 Oeste 0 -- -- 96
2018-10-14 21:00:00 12.3 5 Sudoeste 12 Oeste 0 -- -- 93
2018-10-14 20:00:00 13.1 5 Sudoeste 16 Noroeste 0 -- -- 90
2018-10-14 19:00:00 13.2 6 Sudoeste 24 Noroeste 0 -- -- 89
2018-10-14 18:00:00 13.5 11 Noroeste 23 Norte 0 -- -- 90
2018-10-14 17:00:00 13.8 5 Norte 30 Nordeste 0 -- -- 91
2018-10-14 16:00:00 14.1 9 Oeste 32 Noroeste 0.2 -- -- 95
2018-10-14 15:00:00 13.3 12 Sur 45 Noroeste 0.2 -- -- 96
2018-10-14 14:00:00 12.9 12 Norte 41 Nordeste 2.6 -- -- 97
2018-10-14 13:00:00 12.9 16 Noroeste 51 Noroeste 3.6 -- -- 97
2018-10-14 12:00:00 13.3 14 Noroeste 53 Norte 13.4 -- -- 97
2018-10-14 11:00:00 14.6 30 Norte 63 Norte 5.6 -- -- 91
2018-10-14 10:00:00 17.9 3 Norte 13 Nordeste 0 -- -- 85
2018-10-14 09:00:00 17.7 6 Nordeste 18 Norte 0 -- -- 89
2018-10-14 08:00:00 18.4 8 Norte 36 Oeste 0 -- -- 85
2018-10-14 07:00:00 23.2 19 Sudoeste 34 Sudoeste 0 -- -- 61
2018-10-14 06:00:00 19.3 4 Norte 21 Sudoeste 0 -- -- 80
2018-10-14 05:00:00 21.1 7 Norte 24 Sudoeste 0 -- -- 72
2018-10-14 04:00:00 22.7 8 Sur 23 Sudoeste 0 -- -- 65
2018-10-14 03:00:00 23.9 14 Sudoeste 27 Oeste 0 -- -- 62
2018-10-14 02:00:00 24.6 12 Sudoeste 30 Sudoeste 0 -- -- 60
2018-10-14 01:00:00 25.5 24 Sudoeste 53 Sudoeste 0 -- -- 57
2018-10-14 00:00:00 25.3 26 Sudoeste 46 Sudoeste 0 -- -- 59
2018-10-13 23:00:00 22.9 9 Sudoeste 19 Oeste 0 -- -- 68
2018-10-13 22:00:00 22.5 8 Sudoeste 15 Oeste 0 -- -- 70
2018-10-13 21:00:00 22.1 9 Sudoeste 14 Oeste 0 -- -- 73
2018-10-13 20:00:00 25.1 6 Sudoeste 14 Oeste 0 -- -- 58
2018-10-13 19:00:00 26.9 8 Sudoeste 21 Sudoeste 0 -- -- 54
2018-10-13 18:00:00 27.5 6 Sudoeste 22 Sudoeste 0 -- -- 54
2018-10-13 17:00:00 28.1 11 Sudoeste 26 Sudoeste 0 -- -- 51
2018-10-13 16:00:00 27.9 15 Sudoeste 28 Oeste 0 -- -- 48
2018-10-13 15:00:00 28 15 Sudoeste 30 Sudoeste 0 -- -- 51
2018-10-13 14:00:00 26.5 17 Sudoeste 35 Oeste 0 -- -- 53
2018-10-13 13:00:00 26.4 14 Sudoeste 39 Oeste 0 -- -- 55
2018-10-13 12:00:00 25.3 21 Sudoeste 35 Sudoeste 0 -- -- 54
2018-10-13 11:00:00 23.9 9 Sudoeste 29 Oeste 0 -- -- 59
2018-10-13 10:00:00 22.5 13 Oeste 23 Oeste 0 -- -- 59
2018-10-13 09:00:00 22.1 15 Oeste 28 Sudoeste 0 -- -- 60
2018-10-13 08:00:00 21.6 14 Sudoeste 31 Sudoeste 0 -- -- 60
2018-10-13 07:00:00 22.7 22 Sudoeste 33 Oeste 0 -- -- 58
2018-10-13 06:00:00 22.3 17 Oeste 26 Oeste 0 -- -- 58
2018-10-13 05:00:00 22.6 12 Oeste 22 Oeste 0 -- -- 53
2018-10-13 04:00:00 23 16 Oeste 24 Oeste 0 -- -- 51
2018-10-13 03:00:00 18.7 9 Sudoeste 16 Oeste 0 -- -- 67
2018-10-13 02:00:00 19.1 6 Sudoeste 13 Oeste 0 -- -- 65
2018-10-13 01:00:00 19.6 6 Sudoeste 12 Sudoeste 0 -- -- 65
2018-10-13 00:00:00 19.6 9 Sudoeste 14 Sudoeste 0 -- -- 64
2018-10-12 23:00:00 18.9 8 Sudoeste 12 Sudoeste 0 -- -- 67
2018-10-12 22:00:00 20.1 8 Sudoeste 13 Sudoeste 0 -- -- 60
2018-10-12 21:00:00 21.2 8 Sudoeste 15 Sudoeste 0 -- -- 59
2018-10-12 20:00:00 23.5 9 Sudoeste 19 Sudoeste 0 -- -- 50
2018-10-12 19:00:00 25.7 12 Sudoeste 31 Oeste 0 -- -- 44
2018-10-12 18:00:00 27.3 19 Oeste 35 Oeste 0 -- -- 41
2018-10-12 17:00:00 27.4 16 Oeste 41 Oeste 0 -- -- 44
2018-10-12 16:00:00 27.1 20 Oeste 44 Oeste 0 -- -- 44
2018-10-12 15:00:00 26.5 29 Oeste 53 Oeste 0 -- -- 44
2018-10-12 14:00:00 26.1 26 Oeste 56 Oeste 0 -- -- 45
2018-10-12 13:00:00 25.8 27 Oeste 53 Sudoeste 0 -- -- 48
2018-10-12 12:00:00 24.9 26 Oeste 62 Sudoeste 0 -- -- 51
2018-10-12 11:00:00 24.1 22 Sudoeste 47 Sudoeste 0 -- -- 54
2018-10-12 10:00:00 22.2 19 Sudoeste 37 Sudoeste 0 -- -- 60
2018-10-12 09:00:00 20.6 20 Sudoeste 30 Sudoeste 0 -- -- 64
2018-10-12 08:00:00 20.6 17 Oeste 31 Sudoeste 0 -- -- 65
2018-10-12 07:00:00 21.1 13 Sudoeste 31 Sudoeste 0 -- -- 63
2018-10-12 06:00:00 20.6 11 Sudoeste 22 Oeste 0 -- -- 66
2018-10-12 05:00:00 19.7 14 Sudoeste 22 Sudoeste 0 -- -- 74
2018-10-12 04:00:00 17 12 Sudoeste 22 Sudoeste 0 -- -- 88
2018-10-12 03:00:00 14.9 11 Sudoeste 15 Oeste 0 -- -- 100
2018-10-12 02:00:00 14.3 10 Sudoeste 14 Sudoeste 0 -- -- 100
2018-10-12 01:00:00 14.5 6 Sudoeste 9 Sudoeste 0 -- -- 99
2018-10-12 00:00:00 15 4 Sudoeste 8 Oeste 0 -- -- 98
2018-10-11 23:00:00 16 0 Calma 4 Nordeste 0 -- -- 96
2018-10-11 22:00:00 16.5 3 Norte 10 Norte 0 -- -- 95
2018-10-11 21:00:00 17.4 3 Norte 5 Nordeste 0 -- -- 93
2018-10-11 20:00:00 17.6 3 Norte 6 Nordeste 0 -- -- 92
2018-10-11 19:00:00 18.5 3 Norte 11 Nordeste 0 -- -- 88
2018-10-11 18:00:00 19.3 7 Nordeste 27 Nordeste 0 -- -- 84
2018-10-11 17:00:00 21.3 13 Nordeste 42 Noroeste 0 -- -- 78
2018-10-11 16:00:00 25.9 15 Sudoeste 35 Sudoeste 0 -- -- 58
2018-10-11 15:00:00 26 18 Sudoeste 37 Sudoeste 0 -- -- 59
2018-10-11 14:00:00 24.2 15 Sudoeste 34 Sudoeste 0 -- -- 63
2018-10-11 13:00:00 23.6 19 Sudoeste 40 Oeste 0 -- -- 60
2018-10-11 12:00:00 21.6 21 Sudoeste 40 Sudoeste 0 -- -- 68
2018-10-11 11:00:00 20.7 9 Sudoeste 21 Sudoeste 0 -- -- 68
2018-10-11 10:00:00 19.2 7 Sudoeste 19 Sudoeste 0 -- -- 68
2018-10-11 09:00:00 18.3 3 Sudoeste 13 Oeste 0 -- -- 71
2018-10-11 08:00:00 19 10 Oeste 15 Oeste 0 -- -- 68
2018-10-11 07:00:00 19.3 9 Oeste 17 Oeste 0 -- -- 66
2018-10-11 06:00:00 19.4 9 Sudoeste 32 Noroeste 0 -- -- 64
2018-10-11 05:00:00 20 13 Oeste 30 Oeste 0 -- -- 60
2018-10-11 04:00:00 20.1 14 Noroeste 31 Oeste 0 -- -- 59
2018-10-11 03:00:00 20 11 Oeste 29 Oeste 0 -- -- 58
2018-10-11 02:00:00 19.4 9 Oeste 21 Sudoeste 0 -- -- 60
2018-10-11 01:00:00 18.7 7 Oeste 22 Oeste 0 -- -- 63
2018-10-11 00:00:00 17.6 11 Oeste 16 Oeste 0 -- -- 70
2018-10-10 23:00:00 17.6 5 Sudoeste 9 Sur 0 -- -- 70
2018-10-10 22:00:00 17.1 6 Sudoeste 10 Sudoeste 0 -- -- 74
2018-10-10 21:00:00 17.8 6 Sudoeste 12 Oeste 0 -- -- 71
2018-10-10 20:00:00 18.4 6 Oeste 18 Oeste 0 -- -- 69
2018-10-10 19:00:00 20.1 12 Oeste 32 Sudoeste 0 -- -- 61
2018-10-10 18:00:00 22.4 13 Sudoeste 39 Sudoeste 0 -- -- 51
2018-10-10 17:00:00 23.1 23 Sudoeste 42 Sudoeste 0 -- -- 49
2018-10-10 16:00:00 22.3 12 Sudoeste 33 Sudoeste 0 -- -- 52
2018-10-10 15:00:00 24.3 16 Sudoeste 35 Sudoeste 0 -- -- 47
2018-10-10 14:00:00 23.6 15 Sudoeste 36 Sudoeste 0 -- -- 50
2018-10-10 13:00:00 22.6 17 Sudoeste 38 Sudoeste 0 -- -- 53
2018-10-10 12:00:00 20.6 7 Sur 20 Sudoeste 0 -- -- 60
2018-10-10 11:00:00 19.9 9 Sudoeste 21 Sudoeste 0 -- -- 64
2018-10-10 10:00:00 18.2 7 Oeste 14 Oeste 0 -- -- 73
2018-10-10 09:00:00 13.9 4 Noroeste 12 Sudoeste 0 -- -- 88
2018-10-10 08:00:00 13.5 3 Nordeste 9 Nordeste 0 -- -- 93
2018-10-10 07:00:00 13.5 2 Sudeste 12 Sudoeste 0 -- -- 91
2018-10-10 06:00:00 15.4 8 Oeste 11 Oeste 0 -- -- 82
2018-10-10 05:00:00 15.7 3 Sudoeste 9 Sur 0 -- -- 81
2018-10-10 04:00:00 14.5 2 Norte 4 Este 0 -- -- 86
2018-10-10 03:00:00 13.7 0 Calma 9 Oeste 0 -- -- 90
2018-10-10 02:00:00 14 7 Oeste 12 Oeste 0 -- -- 89
2018-10-10 01:00:00 13.8 4 Sudoeste 9 Sur 0 -- -- 90
2018-10-10 00:00:00 12.1 0 Calma 6 Norte 0 -- -- 97
2018-10-09 23:00:00 12.6 3 Norte 9 Noroeste 0 -- -- 97
2018-10-09 22:00:00 13.5 3 Nordeste 9 Sudoeste 0 -- -- 95
2018-10-09 21:00:00 14.6 0 Calma 13 Norte 0 -- -- 91
2018-10-09 20:00:00 15.1 6 Nordeste 15 Norte 0 -- -- 91
2018-10-09 19:00:00 16.4 8 Norte 24 Nordeste 0 -- -- 86
2018-10-09 18:00:00 19.3 9 Nordeste 17 Nordeste 0 -- -- 77
2018-10-09 17:00:00 18.5 10 Nordeste 21 Norte 0 -- -- 80
2018-10-09 16:00:00 19.8 9 Nordeste 19 Nordeste 0 -- -- 75
2018-10-09 15:00:00 19.7 8 Nordeste 15 Norte 0 -- -- 75
2018-10-09 14:00:00 18.7 5 Nordeste 15 Norte 0 -- -- 79
2018-10-09 13:00:00 17.8 4 Este 11 Este 0 -- -- 79
2018-10-09 12:00:00 15.6 5 Oeste 10 Sudoeste 0 -- -- 90
2018-10-09 11:00:00 12.4 6 Sudoeste 13 Sudoeste 0 -- -- 100
2018-10-09 10:00:00 11 4 Sudoeste 8 Sudoeste 0 -- -- 100
2018-10-09 09:00:00 10.6 2 Sur 5 Sur 0 -- -- 100
2018-10-09 08:00:00 10.9 3 Sur 6 Sudoeste 0 -- -- 100
2018-10-09 07:00:00 11.5 3 Sur 7 Oeste 0 -- -- 100
2018-10-09 06:00:00 11.9 0 Calma 5 Sudoeste 0 -- -- 100
2018-10-09 05:00:00 12.2 0 Calma 4 Sudeste 0 -- -- 100
2018-10-09 04:00:00 12.7 2 Sur 5 Sudoeste 0 -- -- 100
2018-10-09 03:00:00 12.8 3 Sudoeste 5 Sudoeste 0 -- -- 100
2018-10-09 02:00:00 13.3 2 Sudoeste 5 Oeste 0 -- -- 100
2018-10-09 01:00:00 13.3 0 Calma 6 Sudoeste 0.6 -- -- 100
2018-10-09 00:00:00 13.3 0 Calma 4 Norte 0 -- -- 100
2018-10-08 23:00:00 13.4 3 Oeste 5 Noroeste 0 -- -- 100
2018-10-08 22:00:00 13.5 0 Calma 5 Nordeste 0 -- -- 100
2018-10-08 21:00:00 13.5 3 Norte 6 Norte 0 -- -- 100
2018-10-08 20:00:00 13.6 3 Norte 9 Norte 0.2 -- -- 99
2018-10-08 19:00:00 14.1 5 Nordeste 12 Norte 0.2 -- -- 98
2018-10-08 18:00:00 14.7 4 Nordeste 14 Este 0 -- -- 93
2018-10-08 17:00:00 15.3 6 Nordeste 23 Nordeste 0 -- -- 88
2018-10-08 16:00:00 16.9 12 Nordeste 20 Nordeste 0 -- -- 81
2018-10-08 15:00:00 18.3 10 Nordeste 19 Norte 0 -- -- 77
2018-10-08 14:00:00 17 9 Nordeste 18 Nordeste 0 -- -- 81
2018-10-08 13:00:00 16.1 10 Este 19 Este 0 -- -- 86
2018-10-08 12:00:00 15.7 9 Este 18 Este 0 -- -- 91
2018-10-08 11:00:00 15.2 5 Nordeste 10 Nordeste 0 -- -- 99
2018-10-08 10:00:00 13.9 2 Sur 7 Oeste 0 -- -- 100
2018-10-08 09:00:00 13.2 3 Sudoeste 8 Noroeste 0 -- -- 100
2018-10-08 08:00:00 13.6 2 Norte 10 Nordeste 0 -- -- 100
2018-10-08 07:00:00 13.8 7 Norte 13 Norte 0 -- -- 100
2018-10-08 06:00:00 14 6 Nordeste 23 Este 0 -- -- 98
2018-10-08 05:00:00 14.3 8 Nordeste 26 Nordeste 0 -- -- 99
2018-10-08 04:00:00 14.1 5 Nordeste 19 Nordeste 4.2 -- -- 100
2018-10-08 03:00:00 14.2 12 Nordeste 24 Nordeste 2.4 -- -- 99
2018-10-08 02:00:00 14 7 Norte 24 Nordeste 0 -- -- 98
2018-10-08 01:00:00 14.1 10 Nordeste 29 Norte 4.4 -- -- 98
2018-10-08 00:00:00 14.4 16 Norte 28 Norte 1.4 -- -- 96
2018-10-07 23:00:00 14.1 13 Nordeste 29 Nordeste 1 -- -- 96
2018-10-07 22:00:00 13.5 6 Norte 25 Norte 2 -- -- 98
2018-10-07 21:00:00 13.6 17 Norte 32 Norte 0.4 -- -- 95
2018-10-07 20:00:00 12.7 5 Nordeste 23 Norte 1.6 -- -- 99
2018-10-07 19:00:00 12.3 6 Sudoeste 20 Nordeste 2 -- -- 97
2018-10-07 18:00:00 12.6 4 Norte 38 Norte 1.6 -- -- 92
2018-10-07 17:00:00 13.1 14 Nordeste 27 Este 0.8 -- -- 93
2018-10-07 16:00:00 13.3 11 Nordeste 34 Norte 0.8 -- -- 91
2018-10-07 15:00:00 13.6 21 Nordeste 49 Nordeste 0.2 -- -- 78
2018-10-07 14:00:00 13.6 17 Norte 36 Norte 0 -- -- 84
2018-10-07 13:00:00 13.6 24 Norte 40 Norte 0.2 -- -- 84
2018-10-07 12:00:00 13.5 9 Norte 23 Norte 0.6 -- -- 89
2018-10-07 11:00:00 13.4 6 Sudoeste 17 Sudoeste 0 -- -- 96
2018-10-07 10:00:00 12.1 9 Sudoeste 16 Oeste 0 -- -- 98
2018-10-07 09:00:00 11.7 6 Sudoeste 29 Noroeste 1.2 -- -- 95
2018-10-07 08:00:00 11.5 6 Sudoeste 28 Oeste 1.8 -- -- 96
2018-10-07 07:00:00 11.9 7 Noroeste 23 Oeste 1.2 -- -- 95
2018-10-07 06:00:00 11.9 10 Noroeste 29 Noroeste 2.8 -- -- 96
2018-10-07 05:00:00 11.8 7 Noroeste 25 Noroeste 1.2 -- -- 94
2018-10-07 04:00:00 12.1 18 Noroeste 39 Noroeste 2.4 -- -- 91
2018-10-07 03:00:00 12.6 14 Noroeste 37 Noroeste 0.2 -- -- 88
2018-10-07 02:00:00 13.1 5 Sudoeste 34 Noroeste 0 -- -- 82
2018-10-07 01:00:00 13.6 13 Noroeste 31 Oeste 0 -- -- 79
2018-10-07 00:00:00 13.4 8 Noroeste 24 Norte 0.6 -- -- 85
2018-10-06 23:00:00 13.8 11 Noroeste 33 Noroeste 0.4 -- -- 84
2018-10-06 22:00:00 14.5 10 Noroeste 31 Sudoeste 0 -- -- 80
2018-10-06 21:00:00 13.9 10 Oeste 24 Oeste 0.4 -- -- 86
2018-10-06 20:00:00 13.4 9 Sudoeste 32 Oeste 1 -- -- 90
2018-10-06 19:00:00 14.5 12 Noroeste 54 Noroeste 0.2 -- -- 81
2018-10-06 18:00:00 15.1 20 Noroeste 60 Norte 0 -- -- 77
2018-10-06 17:00:00 16.3 13 Norte 38 Norte 0 -- -- 83
2018-10-06 16:00:00 19.4 16 Norte 46 Norte 0 -- -- 66
2018-10-06 15:00:00 21 10 Norte 39 Norte 0 -- -- 60
2018-10-06 14:00:00 20.3 11 Norte 35 Norte 0 -- -- 62
2018-10-06 13:00:00 21.4 8 Noroeste 28 Noroeste 0 -- -- 60
2018-10-06 12:00:00 19.6 4 Norte 11 Norte 0 -- -- 69
2018-10-06 11:00:00 17.8 6 Sudoeste 14 Noroeste 0 -- -- 86
2018-10-06 10:00:00 13.1 3 Oeste 6 Sudoeste 0 -- -- 96
2018-10-06 09:00:00 10 3 Sudoeste 9 Sudoeste 0 -- -- 100
2018-10-06 08:00:00 9.3 6 Sudoeste 10 Sudoeste 0 -- -- 98
2018-10-06 07:00:00 9.8 6 Sudoeste 8 Sudoeste 0 -- -- 98
2018-10-06 06:00:00 9.8 3 Sudoeste 10 Sudoeste 0 -- -- 97
2018-10-06 05:00:00 10.3 4 Sudoeste 10 Sudoeste 0 -- -- 97
2018-10-06 04:00:00 10.8 6 Sur 10 Sudoeste 0 -- -- 96
2018-10-06 03:00:00 11.2 5 Sudoeste 8 Sudoeste 0 -- -- 95
2018-10-06 02:00:00 12 3 Sudoeste 6 Sudoeste 0 -- -- 93
2018-10-06 01:00:00 12.5 3 Sudoeste 11 Sudoeste 0 -- -- 93
2018-10-06 00:00:00 13.2 4 Sudoeste 8 Sudoeste 0 -- -- 92
2018-10-05 23:00:00 13.9 5 Sudoeste 10 Sudoeste 0 -- -- 90
2018-10-05 22:00:00 15.2 6 Sudoeste 9 Sudoeste 0 -- -- 87
2018-10-05 21:00:00 16.8 3 Sudoeste 5 Sudoeste 0 -- -- 83
2018-10-05 20:00:00 18 4 Este 13 Norte 0 -- -- 78
2018-10-05 19:00:00 19.7 8 Norte 18 Norte 0 -- -- 69
2018-10-05 18:00:00 22.7 12 Norte 23 Norte 0 -- -- 61
2018-10-05 17:00:00 23.1 15 Norte 31 Norte 0 -- -- 59
2018-10-05 16:00:00 23.6 18 Norte 29 Norte 0 -- -- 57
2018-10-05 15:00:00 24.9 13 Norte 24 Norte 0 -- -- 58
2018-10-05 14:00:00 28.5 11 Sudoeste 27 Sudoeste 0 -- -- 41
2018-10-05 13:00:00 27.1 13 Sudoeste 28 Sudoeste 0 -- -- 47
2018-10-05 12:00:00 25 14 Sudoeste 28 Oeste 0 -- -- 53
2018-10-05 11:00:00 21.7 6 Sudoeste 14 Oeste 0 -- -- 75
2018-10-05 10:00:00 17.1 9 Sudoeste 18 Oeste 0 -- -- 85
2018-10-05 09:00:00 12.2 7 Sudoeste 12 Sudoeste 0 -- -- 100
2018-10-05 08:00:00 10.7 9 Sudoeste 13 Sudoeste 0 -- -- 100
2018-10-05 07:00:00 10.1 8 Sudoeste 12 Sudoeste 0 -- -- 100
2018-10-05 06:00:00 10.2 7 Sudoeste 11 Sudoeste 0 -- -- 100
2018-10-05 05:00:00 10.3 8 Sudoeste 10 Sudoeste 0 -- -- 100
2018-10-05 04:00:00 10.9 6 Sudoeste 10 Sudoeste 0 -- -- 100
2018-10-05 03:00:00 11.4 9 Sudoeste 11 Sudoeste 0 -- -- 100
2018-10-05 02:00:00 11.7 8 Sudoeste 11 Sudoeste 0 -- -- 100
2018-10-05 01:00:00 11.9 5 Sur 10 Sudoeste 0 -- -- 99
2018-10-05 00:00:00 12.7 5 Sudoeste 8 Sudoeste 0 -- -- 98
2018-10-04 23:00:00 13.8 4 Sudoeste 7 Oeste 0 -- -- 97
2018-10-04 22:00:00 15 2 Sudoeste 5 Sudoeste 0 -- -- 95
2018-10-04 21:00:00 15.6 4 Nordeste 9 Nordeste 0 -- -- 93
2018-10-04 20:00:00 16.6 6 Norte 16 Norte 0 -- -- 88
2018-10-04 19:00:00 18.3 12 Norte 23 Norte 0 -- -- 81
2018-10-04 18:00:00 20.4 19 Norte 26 Norte 0 -- -- 74
2018-10-04 17:00:00 22.4 12 Norte 21 Nordeste 0 -- -- 67
2018-10-04 16:00:00 22.3 9 Nordeste 22 Este 0 -- -- 66
2018-10-04 15:00:00 21.5 14 Este 22 Este 0 -- -- 68
2018-10-04 14:00:00 21.8 13 Este 19 Este 0 -- -- 66
2018-10-04 13:00:00 21.4 8 Nordeste 17 Nordeste 0 -- -- 67
2018-10-04 12:00:00 19.9 3 Nordeste 8 Este 0 -- -- 72
2018-10-04 11:00:00 17.4 3 Sudeste 10 Sur 0 -- -- 80
2018-10-04 10:00:00 13.6 4 Sudoeste 8 Sudoeste 0 -- -- 91
2018-10-04 09:00:00 10.7 7 Sudoeste 10 Sudoeste 0 -- -- 98
2018-10-04 08:00:00 10.6 4 Sudoeste 14 Sudoeste 0 -- -- 98
2018-10-04 07:00:00 10.7 6 Sudoeste 10 Sudoeste 0 -- -- 99
2018-10-04 06:00:00 10.3 4 Sudoeste 9 Sudoeste 0 -- -- 98
2018-10-04 05:00:00 10.5 6 Sudoeste 9 Sudoeste 0 -- -- 97
2018-10-04 04:00:00 11.5 0 Calma 6 Oeste 0 -- -- 95
2018-10-04 03:00:00 11.3 3 Sudoeste 8 Sudoeste 0 -- -- 94
2018-10-04 02:00:00 11.3 3 Sudoeste 10 Oeste 0 -- -- 94
2018-10-04 01:00:00 10.9 6 Sudoeste 9 Oeste 0 -- -- 95
2018-10-04 00:00:00 10.9 5 Sudoeste 11 Sudoeste 0 -- -- 92
2018-10-03 23:00:00 11.7 7 Oeste 10 Sudoeste 0 -- -- 93
2018-10-03 22:00:00 12.4 0 Calma 6 Este 0 -- -- 88
2018-10-03 21:00:00 13.5 3 Este 10 Norte 0 -- -- 84
2018-10-03 20:00:00 15.1 5 Norte 13 Nordeste 0 -- -- 76
2018-10-03 19:00:00 17.1 4 Norte 18 Nordeste 0 -- -- 69
2018-10-03 18:00:00 19.1 9 Nordeste 23 Nordeste 0 -- -- 62
2018-10-03 17:00:00 20.2 10 Nordeste 20 Este 0 -- -- 60
2018-10-03 16:00:00 20.4 8 Nordeste 21 Nordeste 0 -- -- 61
2018-10-03 15:00:00 20.3 10 Nordeste 21 Este 0 -- -- 57
2018-10-03 14:00:00 19.7 13 Este 22 Este 0 -- -- 57
2018-10-03 13:00:00 19.7 8 Nordeste 15 Norte 0 -- -- 58
2018-10-03 12:00:00 17.9 4 Noroeste 8 Noroeste 0 -- -- 67
2018-10-03 11:00:00 14.6 0 Calma 5 Oeste 0 -- -- 81
2018-10-03 10:00:00 11.5 3 Sudoeste 12 Sudoeste 0 -- -- 89
2018-10-03 09:00:00 7.9 6 Sudoeste 10 Sudoeste 0 -- -- 99
2018-10-03 08:00:00 7 5 Sudoeste 9 Sudoeste 0 -- -- 97
2018-10-03 07:00:00 7.3 7 Sudoeste 10 Sudoeste 0 -- -- 97
2018-10-03 06:00:00 7.6 6 Sudoeste 10 Sudoeste 0 -- -- 97
2018-10-03 05:00:00 7.8 7 Sudoeste 10 Sudoeste 0 -- -- 97
2018-10-03 04:00:00 7.9 8 Sudoeste 9 Sudoeste 0 -- -- 96
2018-10-03 03:00:00 8 7 Sudoeste 9 Sudoeste 0 -- -- 95
2018-10-03 02:00:00 8.2 6 Sudoeste 9 Sudoeste 0 -- -- 94
2018-10-03 01:00:00 8.7 5 Sudoeste 9 Sudoeste 0 -- -- 92
2018-10-03 00:00:00 9 6 Sudoeste 9 Sudoeste 0 -- -- 92
2018-10-02 23:00:00 10 4 Sudoeste 6 Sudoeste 0 -- -- 86
2018-10-02 22:00:00 11 4 Sudoeste 6 Sudoeste 0 -- -- 82
2018-10-02 21:00:00 12.5 3 Oeste 7 Sudoeste 0 -- -- 75
2018-10-02 20:00:00 14.3 3 Norte 9 Este 0 -- -- 65
2018-10-02 19:00:00 16 5 Este 17 Este 0 -- -- 59
2018-10-02 18:00:00 17.2 10 Este 22 Este 0 -- -- 55
2018-10-02 17:00:00 17.8 11 Este 22 Este 0 -- -- 51
2018-10-02 16:00:00 18.4 10 Este 24 Este 0 -- -- 51
2018-10-02 15:00:00 18.3 13 Este 28 Sudeste 0 -- -- 52
2018-10-02 14:00:00 18.4 13 Este 26 Este 0 -- -- 55
2018-10-02 13:00:00 18.4 10 Este 22 Nordeste 0 -- -- 56
2018-10-02 12:00:00 16.8 2 Nordeste 8 Norte 0 -- -- 69
2018-10-02 11:00:00 14.6 5 Sudoeste 9 Sudoeste 0 -- -- 75
2018-10-02 10:00:00 10.8 3 Sudoeste 9 Sudoeste 0 -- -- 93
2018-10-02 09:00:00 8 5 Sudoeste 9 Sudoeste 0 -- -- 99
2018-10-02 08:00:00 7.5 5 Sudoeste 9 Sudoeste 0 -- -- 98
2018-10-02 07:00:00 7.7 5 Sudoeste 8 Sudoeste 0 -- -- 98
2018-10-02 06:00:00 7.8 4 Sudoeste 7 Sur 0 -- -- 97
2018-10-02 05:00:00 8.3 5 Sudoeste 7 Sudoeste 0 -- -- 96
2018-10-02 04:00:00 8.9 4 Sudoeste 7 Sudoeste 0 -- -- 94
2018-10-02 03:00:00 9.9 6 Sudoeste 9 Sudoeste 0 -- -- 91
2018-10-02 02:00:00 11.3 7 Sudoeste 9 Sudoeste 0 -- -- 89
2018-10-02 01:00:00 13.3 2 Este 15 Nordeste 0 -- -- 72
2018-10-02 00:00:00 14.1 5 Nordeste 13 Este 0 -- -- 70
2018-10-01 23:00:00 14.5 6 Nordeste 15 Nordeste 0 -- -- 71
2018-10-01 22:00:00 14.2 3 Nordeste 10 Nordeste 0 -- -- 75
2018-10-01 21:00:00 14.7 4 Nordeste 15 Nordeste 0 -- -- 73
2018-10-01 20:00:00 15.1 7 Nordeste 15 Este 0 -- -- 73
2018-10-01 19:00:00 15.8 7 Nordeste 17 Este 0 -- -- 70
2018-10-01 18:00:00 16.6 11 Nordeste 22 Este 0 -- -- 71
2018-10-01 17:00:00 17 15 Este 25 Nordeste 0.2 -- -- 74
2018-10-01 16:00:00 16.4 8 Este 28 Sudeste 0 -- -- 79
2018-10-01 15:00:00 17.2 19 Este 30 Este 0 -- -- 74
2018-10-01 14:00:00 19.1 13 Nordeste 23 Nordeste 0 -- -- 63
2018-10-01 13:00:00 18.9 11 Nordeste 25 Este 0 -- -- 65
2018-10-01 12:00:00 17.1 13 Este 22 Nordeste 0 -- -- 71
2018-10-01 11:00:00 16.3 7 Nordeste 17 Nordeste 0 -- -- 78
2018-10-01 10:00:00 15 0 Calma 9 Sudoeste 0 -- -- 91
2018-10-01 09:00:00 14.1 3 Sudoeste 8 Sudoeste 0 -- -- 93
2018-10-01 08:00:00 14.1 3 Sur 6 Sudoeste 0 -- -- 90
2018-10-01 07:00:00 14.4 4 Oeste 9 Oeste 0 -- -- 88
2018-10-01 06:00:00 15.1 4 Este 12 Nordeste 0 -- -- 81
2018-10-01 05:00:00 14.2 7 Nordeste 13 Nordeste 0 -- -- 94
2018-10-01 04:00:00 13.3 5 Sudoeste 8 Oeste 0 -- -- 100
2018-10-01 03:00:00 13 4 Sudoeste 6 Sur 0 -- -- 99
2018-10-01 02:00:00 13.1 3 Sudoeste 8 Sudoeste 0 -- -- 98
2018-10-01 01:00:00 13.3 3 Sudoeste 9 Sudoeste 0 -- -- 98
2018-10-01 00:00:00 13.8 6 Sudoeste 9 Sudoeste 0 -- -- 98
2018-09-30 23:00:00 14.1 4 Sudoeste 10 Sudoeste 0 -- -- 95
2018-09-30 22:00:00 14.9 8 Sudoeste 11 Sudoeste 0 -- -- 93
2018-09-30 21:00:00 16.5 0 Calma 6 Nordeste 0 -- -- 86
2018-09-30 20:00:00 17.3 4 Norte 14 Norte 0 -- -- 83
2018-09-30 19:00:00 18.9 9 Norte 20 Nordeste 0 -- -- 76
2018-09-30 18:00:00 20.7 11 Nordeste 24 Nordeste 0 -- -- 69
2018-09-30 17:00:00 21.2 12 Norte 24 Norte 0 -- -- 67
2018-09-30 16:00:00 21.9 9 Nordeste 21 Nordeste 0 -- -- 61
2018-09-30 15:00:00 22.3 9 Nordeste 21 Este 0 -- -- 58
2018-09-30 14:00:00 22.3 7 Norte 18 Norte 0 -- -- 60
2018-09-30 13:00:00 21.3 5 Nordeste 11 Sudoeste 0 -- -- 55
2018-09-30 12:00:00 19.5 8 Noroeste 17 Oeste 0 -- -- 68
2018-09-30 11:00:00 18.4 6 Sur 13 Sur 0 -- -- 80
2018-09-30 10:00:00 16.1 5 Sur 9 Sudoeste 0 -- -- 89
2018-09-30 09:00:00 13.5 6 Sudoeste 9 Sur 0 -- -- 99
2018-09-30 08:00:00 13.1 5 Sudoeste 10 Sudoeste 0 -- -- 98
2018-09-30 07:00:00 13.6 6 Sudoeste 12 Sudoeste 0 -- -- 97
2018-09-30 06:00:00 13.8 7 Oeste 12 Oeste 0 -- -- 98
2018-09-30 05:00:00 13.8 5 Sudoeste 10 Sudoeste 0 -- -- 100
2018-09-30 04:00:00 13.6 6 Sudoeste 9 Sudoeste 0 -- -- 100
2018-09-30 03:00:00 13.9 4 Sudoeste 8 Sudoeste 0 -- -- 100
2018-09-30 02:00:00 13.9 6 Sudoeste 8 Sudoeste 0 -- -- 100
2018-09-30 01:00:00 13.5 3 Oeste 4 Sudoeste 0 -- -- 100
2018-09-30 00:00:00 13.7 3 Sur 7 Sudoeste 0 -- -- 98
2018-09-29 23:00:00 14.7 0 Calma 3 Nordeste 0 -- -- 96
2018-09-29 22:00:00 15.2 0 Calma 5 Nordeste 0 -- -- 96
2018-09-29 21:00:00 16 4 Norte 9 Nordeste 0 -- -- 92
2018-09-29 20:00:00 17.3 6 Nordeste 13 Nordeste 0 -- -- 89
2018-09-29 19:00:00 19.6 6 Nordeste 20 Norte 0 -- -- 82
2018-09-29 18:00:00 21.8 9 Norte 20 Norte 0 -- -- 75
2018-09-29 17:00:00 22.7 12 Norte 21 Norte 0 -- -- 72
2018-09-29 16:00:00 23 14 Norte 23 Nordeste 0 -- -- 73
2018-09-29 15:00:00 23.4 10 Nordeste 25 Nordeste 0 -- -- 71
2018-09-29 14:00:00 23.4 15 Norte 22 Nordeste 0 -- -- 76
2018-09-29 13:00:00 23 8 Nordeste 17 Norte 0 -- -- 75
2018-09-29 12:00:00 21.8 6 Sur 13 Sudoeste 0 -- -- 73
2018-09-29 11:00:00 18.5 6 Sudoeste 10 Sudoeste 0 -- -- 99
2018-09-29 10:00:00 16.2 2 Sur 10 Sudoeste 0 -- -- 100
2018-09-29 09:00:00 14.7 4 Sudoeste 7 Sudoeste 0 -- -- 100
2018-09-29 08:00:00 14.4 4 Sudoeste 10 Sudoeste 0 -- -- 100
2018-09-29 07:00:00 14.6 5 Sudoeste 9 Sudoeste 0 -- -- 100
2018-09-29 06:00:00 15.4 3 Sudoeste 6 Sudoeste 0 -- -- 100
2018-09-29 05:00:00 15.7 5 Sudoeste 8 Sudoeste 0 -- -- 100
2018-09-29 04:00:00 16.2 2 Sudoeste 11 Sudoeste 0 -- -- 99
2018-09-29 03:00:00 16.7 8 Sudoeste 12 Sudoeste 0 -- -- 99
2018-09-29 02:00:00 17 0 Calma -- -- 0 -- -- 99
2018-09-29 01:00:00 16.9 0 Calma 0 Calma 0 -- -- 99
2018-09-29 00:00:00 17.1 0 Calma 4 Norte 0 -- -- 98
2018-09-28 23:00:00 17.1 0 Calma 6 Sudoeste 0 -- -- 96
2018-09-28 22:00:00 17.7 0 Calma 5 Nordeste 0 -- -- 95
2018-09-28 21:00:00 18.1 2 Nordeste 10 Norte 0 -- -- 93
2018-09-28 20:00:00 19.3 8 Norte 15 Norte 0 -- -- 92
2018-09-28 19:00:00 20.9 9 Nordeste 22 Norte 0 -- -- 86
2018-09-28 18:00:00 22.8 15 Norte 24 Norte 0 -- -- 79
2018-09-28 17:00:00 23.7 14 Norte 25 Norte 0 -- -- 78
2018-09-28 16:00:00 24.6 14 Norte 22 Norte 0 -- -- 73
2018-09-28 15:00:00 24.4 12 Norte 24 Nordeste 0 -- -- 74
2018-09-28 14:00:00 24 15 Norte 23 Norte 0 -- -- 75
2018-09-28 13:00:00 23.9 9 Nordeste 16 Nordeste 0 -- -- 76
2018-09-28 12:00:00 22.5 5 Norte 13 Nordeste 0 -- -- 81
2018-09-28 11:00:00 20.2 6 Nordeste 12 Norte 0 -- -- 89
2018-09-28 10:00:00 17.8 5 Oeste 9 Sudoeste 0 -- -- 100
2018-09-28 09:00:00 16.5 5 Sudoeste 7 Sudoeste 0 -- -- 100
2018-09-28 08:00:00 16.3 4 Sudoeste 7 Sudoeste 0 -- -- 100
2018-09-28 07:00:00 15.3 2 Oeste 5 Sur 0 -- -- 100
2018-09-28 06:00:00 15.2 3 Sudoeste 9 Oeste 0 -- -- 99
2018-09-28 05:00:00 15.2 4 Sudoeste 7 Sudoeste 0 -- -- 98
2018-09-28 04:00:00 15.4 6 Sudoeste 12 Sudoeste 0 -- -- 98
2018-09-28 03:00:00 15.9 2 Sudoeste 8 Sudoeste 0 -- -- 97
2018-09-28 02:00:00 16.3 5 Sudoeste 8 Sudoeste 0 -- -- 96
2018-09-28 01:00:00 16.8 5 Sudoeste 9 Sudoeste 0 -- -- 96
2018-09-28 00:00:00 17.3 7 Sudoeste 9 Sudoeste 0 -- -- 94
2018-09-27 23:00:00 18.5 2 Sudoeste 10 Sudoeste 0 -- -- 91
2018-09-27 22:00:00 19.5 3 Oeste 4 Oeste 0 -- -- 83
2018-09-27 21:00:00 20.8 0 Calma 5 Norte 0 -- -- 75
2018-09-27 20:00:00 22.4 2 Nordeste 12 Norte 0 -- -- 68
2018-09-27 19:00:00 25.9 2 Nordeste 10 Norte 0 -- -- 59
2018-09-27 18:00:00 26.8 4 Norte 21 Norte 0 -- -- 58
2018-09-27 17:00:00 27 17 Norte 29 Norte 0 -- -- 61
2018-09-27 16:00:00 30.1 12 Nordeste 21 Norte 0 -- -- 53
2018-09-27 15:00:00 31 6 Sudeste 14 Sudoeste 0 -- -- 50
2018-09-27 14:00:00 30.1 6 Sudoeste 22 Sur 0 -- -- 52
2018-09-27 13:00:00 28.5 12 Sudoeste 25 Sudoeste 0 -- -- 54
2018-09-27 12:00:00 27 14 Sudoeste 30 Sudoeste 0 -- -- 57
2018-09-27 11:00:00 25.6 11 Sudoeste 22 Sudoeste 0 -- -- 61
2018-09-27 10:00:00 23.3 7 Sur 13 Sudoeste 0 -- -- 65
2018-09-27 09:00:00 20.9 6 Sur 10 Sur 0 -- -- 72
2018-09-27 08:00:00 20.1 4 Sur 21 Sudoeste 0 -- -- 71
2018-09-27 07:00:00 21.4 9 Sudoeste 22 Sur 0 -- -- 66
2018-09-27 06:00:00 21.2 7 Sudoeste 16 Oeste 0 -- -- 66
2018-09-27 05:00:00 21.7 8 Sudoeste 17 Sudoeste 0 -- -- 65
2018-09-27 04:00:00 22.1 8 Sudoeste 16 Sudoeste 0 -- -- 64
2018-09-27 03:00:00 21.4 9 Sur 17 Sudeste 0 -- -- 67
2018-09-27 02:00:00 21.9 9 Sur 22 Oeste 0 -- -- 65
2018-09-27 01:00:00 22.1 8 Sudeste 17 Sur 0 -- -- 65
2018-09-27 00:00:00 23.5 9 Sudoeste 19 Sudoeste 0 -- -- 61
2018-09-26 23:00:00 22.3 12 Sudoeste 20 Sudoeste 0 -- -- 67
2018-09-26 22:00:00 21.2 7 Sudoeste 10 Sudoeste 0 -- -- 77
2018-09-26 21:00:00 23.7 4 Sudoeste 8 Sur 0 -- -- 65
2018-09-26 20:00:00 26.3 4 Sudoeste 12 Sudoeste 0 -- -- 55
2018-09-26 19:00:00 28.6 5 Sur 22 Sur 0 -- -- 50
2018-09-26 18:00:00 29.5 13 Sudoeste 29 Sur 0 -- -- 49
2018-09-26 17:00:00 30.1 13 Sudoeste 25 Oeste 0 -- -- 47
2018-09-26 16:00:00 29.9 11 Sudoeste 27 Oeste 0 -- -- 50
2018-09-26 15:00:00 29.2 14 Sudoeste 32 Sudoeste 0 -- -- 50
2018-09-26 14:00:00 27.9 16 Sudoeste 28 Oeste 0 -- -- 54
2018-09-26 13:00:00 24 5 Este 9 Nordeste 0 -- -- 67
2018-09-26 12:00:00 20.5 3 Nordeste 6 Nordeste 0 -- -- 76
2018-09-26 11:00:00 16.7 0 Calma 5 Sudoeste 0 -- -- 86
2018-09-26 10:00:00 12.8 4 Sudoeste 8 Sur 0 -- -- 98
2018-09-26 09:00:00 9.2 5 Sudoeste 9 Sudoeste 0 -- -- 100
2018-09-26 08:00:00 8 3 Sudoeste 8 Sudoeste 0 -- -- 100
2018-09-26 07:00:00 8.3 5 Sudoeste 8 Sudoeste 0 -- -- 100
2018-09-26 06:00:00 8.3 5 Sudoeste 8 Sudoeste 0 -- -- 100
2018-09-26 05:00:00 8.6 4 Sudoeste 6 Sudoeste 0 -- -- 100
2018-09-26 04:00:00 8.8 4 Sudoeste 8 Sudoeste 0 -- -- 100
2018-09-26 03:00:00 9.2 5 Sudoeste 8 Sudoeste 0 -- -- 99
2018-09-26 02:00:00 9.7 3 Sudoeste 10 Sudoeste 0 -- -- 99
2018-09-26 01:00:00 10 5 Sudoeste 9 Sudoeste 0 -- -- 98
2018-09-26 00:00:00 10.5 3 Sudoeste 9 Sudoeste 0 -- -- 97
2018-09-25 23:00:00 11.6 2 Sudoeste 6 Sudoeste 0 -- -- 94
2018-09-25 22:00:00 12.2 2 Nordeste 4 Sudoeste 0 -- -- 91
2018-09-25 21:00:00 13.5 2 Sudeste 6 Nordeste 0 -- -- 83
2018-09-25 20:00:00 14.4 3 Norte 11 Norte 0 -- -- 79
2018-09-25 19:00:00 17.2 6 Norte 17 Norte 0 -- -- 70
2018-09-25 18:00:00 18.5 8 Nordeste 22 Nordeste 0 -- -- 67
2018-09-25 17:00:00 19.3 12 Nordeste 22 Nordeste 0 -- -- 63
2018-09-25 16:00:00 19.5 12 Nordeste 22 Norte 0 -- -- 65
2018-09-25 15:00:00 19.6 11 Norte 23 Norte 0 -- -- 64
2018-09-25 14:00:00 19 7 Nordeste 18 Norte 0 -- -- 66
2018-09-25 13:00:00 18.9 8 Nordeste 16 Norte 0 -- -- 67
2018-09-25 12:00:00 17.8 8 Nordeste 15 Norte 0 -- -- 69
2018-09-25 11:00:00 15.9 3 Sur 9 Oeste 0 -- -- 81
2018-09-25 10:00:00 12.7 3 Sudoeste 8 Sur 0 -- -- 92
2018-09-25 09:00:00 9.8 6 Sur 12 Sudoeste 0 -- -- 100
2018-09-25 08:00:00 8.6 5 Sudoeste 8 Sudoeste 0 -- -- 100
2018-09-25 07:00:00 9 4 Sudoeste 8 Sudoeste 0 -- -- 99
2018-09-25 06:00:00 9.7 5 Sudoeste 10 Sudoeste 0 -- -- 99
2018-09-25 05:00:00 9.8 4 Sur 6 Sur 0 -- -- 99
2018-09-25 04:00:00 10.1 4 Sudoeste 7 Sudoeste 0 -- -- 100
2018-09-25 03:00:00 9.7 4 Sudoeste 7 Sudoeste 0 -- -- 100
2018-09-25 02:00:00 9.4 4 Sur 10 Sur 0 -- -- 99
2018-09-25 01:00:00 9.6 4 Sudoeste 8 Sudoeste 0 -- -- 98
2018-09-25 00:00:00 10 5 Sudoeste 8 Sudoeste 0 -- -- 97
2018-09-24 23:00:00 10.7 4 Sudoeste 6 Sudoeste 0 -- -- 95
2018-09-24 22:00:00 11.6 3 Sur 10 Sur 0 -- -- 92
2018-09-24 21:00:00 13.2 6 Sudoeste 10 Sudoeste 0 -- -- 85
2018-09-24 20:00:00 14.9 3 Nordeste 15 Nordeste 0 -- -- 77
2018-09-24 19:00:00 16.5 8 Nordeste 18 Este 0 -- -- 70
2018-09-24 18:00:00 17.1 11 Este 23 Este 0 -- -- 68
2018-09-24 17:00:00 17.1 10 Nordeste 21 Nordeste 0 -- -- 69
2018-09-24 16:00:00 17.7 10 Este 21 Este 0 -- -- 73
2018-09-24 15:00:00 18.5 9 Nordeste 21 Nordeste 0 -- -- 74
2018-09-24 14:00:00 17.3 6 Nordeste 24 Este 0 -- -- 79
2018-09-24 13:00:00 17.5 11 Este 27 Nordeste 0 -- -- 80
2018-09-24 12:00:00 17.9 12 Este 20 Este 0 -- -- 81
2018-09-24 11:00:00 16.5 4 Este 9 Nordeste 0 -- -- 92
2018-09-24 10:00:00 15.9 4 Noroeste 8 Noroeste 0.2 -- -- 98
2018-09-24 09:00:00 15.7 5 Noroeste 13 Nordeste 0.2 -- -- 99
2018-09-24 08:00:00 15.7 7 Norte 15 Nordeste 0.2 -- -- 99
2018-09-24 07:00:00 16.2 5 Nordeste 15 Nordeste 0.4 -- -- 98
2018-09-24 06:00:00 16.4 7 Nordeste 22 Este 0.2 -- -- 98
2018-09-24 05:00:00 17.1 8 Nordeste 23 Este 0.4 -- -- 98
2018-09-24 04:00:00 17.9 8 Nordeste 18 Este 0.8 -- -- 99
2018-09-24 03:00:00 18.1 10 Norte 25 Nordeste 0.4 -- -- 99
2018-09-24 02:00:00 18.8 13 Nordeste 24 Nordeste 1.2 -- -- 100
2018-09-24 01:00:00 19.2 0 Calma 6 Sur 0.8 -- -- 100
2018-09-24 00:00:00 19.2 5 Sudoeste 10 Sudoeste 0.6 -- -- 99
2018-09-23 23:00:00 19.4 5 Sur 13 Sur 0 -- -- 97
2018-09-23 22:00:00 19.8 5 Sudoeste 17 Sudoeste 0 -- -- 94
2018-09-23 21:00:00 20.3 8 Sudoeste 12 Sudoeste 0 -- -- 91
2018-09-23 20:00:00 20.6 4 Oeste 27 Norte 0 -- -- 89
2018-09-23 19:00:00 22.2 10 Norte 17 Norte 0 -- -- 79
2018-09-23 18:00:00 22.2 8 Norte 29 Norte 0 -- -- 84
2018-09-23 17:00:00 23.5 7 Nordeste 25 Nordeste 0 -- -- 79
2018-09-23 16:00:00 23 14 Nordeste 35 Norte 0 -- -- 79
2018-09-23 15:00:00 25 15 Norte 25 Norte 0 -- -- 76
2018-09-23 14:00:00 24 16 Norte 30 Norte 0 -- -- 78
2018-09-23 13:00:00 24.3 14 Norte 24 Norte 0 -- -- 77
2018-09-23 12:00:00 23.7 9 Nordeste 17 Nordeste 0 -- -- 80
2018-09-23 11:00:00 21.6 4 Nordeste 10 Nordeste 0 -- -- 85
2018-09-23 10:00:00 18.8 0 Calma 8 Sur 0 -- -- 89
2018-09-23 09:00:00 15.8 3 Sur 9 Sudoeste 0 -- -- 100
2018-09-23 08:00:00 14.6 5 Sudoeste 9 Sudoeste 0 -- -- 100
2018-09-23 07:00:00 14.9 5 Sudoeste 9 Sur 0 -- -- 99
2018-09-23 06:00:00 15 8 Sudoeste 10 Sudoeste 0 -- -- 99
2018-09-23 05:00:00 15.4 5 Sudoeste 9 Sudoeste 0 -- -- 99
2018-09-23 04:00:00 15.5 4 Sudoeste 7 Sudoeste -- -- -- 98
2018-09-23 03:00:00 16.1 4 Sudoeste 9 Sudoeste 0 -- -- 98
2018-09-23 02:00:00 16.5 3 Oeste 6 Sudoeste 0 -- -- 96
2018-09-23 01:00:00 17.1 4 Sudoeste 9 Sudoeste 0 -- -- 94
2018-09-23 00:00:00 17.7 4 Sur 9 Sudoeste 0 -- -- 93
2018-09-22 23:00:00 18.7 5 Sudoeste 8 Sudoeste 0 -- -- 90
2018-09-22 22:00:00 19.8 4 Sudoeste 6 Oeste 0 -- -- 86
2018-09-22 21:00:00 21.4 2 Nordeste 5 Nordeste 0 -- -- 80
2018-09-22 20:00:00 22.7 0 Calma 14 Norte 0 -- -- 72
2018-09-22 19:00:00 25.7 10 Norte 17 Norte 0 -- -- 64
2018-09-22 18:00:00 27.4 10 Norte 17 Norte 0 -- -- 62
2018-09-22 17:00:00 26.6 12 Norte 24 Norte 0 -- -- 65
2018-09-22 16:00:00 26.8 13 Norte 22 Nordeste 0 -- -- 67
2018-09-22 15:00:00 26.9 10 Norte 22 Nordeste 0 -- -- 69
2018-09-22 14:00:00 26.7 9 Nordeste 15 Norte 0 -- -- 69
2018-09-22 13:00:00 26.1 5 Sudeste 14 Sur 0 -- -- 68
2018-09-22 12:00:00 24.2 7 Sudoeste 14 Sur 0 -- -- 74
2018-09-22 11:00:00 21.2 6 Sudoeste 14 Oeste 0 -- -- 87
2018-09-22 10:00:00 18.1 3 Sudoeste 6 Sur 0 -- -- 100
2018-09-22 09:00:00 16.8 4 Sudoeste 8 Sudoeste 0 -- -- 100
2018-09-22 08:00:00 17.1 0 Calma 6 Sudoeste 0 -- -- 100
2018-09-22 07:00:00 17.4 4 Sudoeste 6 Sudoeste 0 -- -- 100
2018-09-22 06:00:00 17.6 3 Sudoeste 5 Sudoeste 0 -- -- 100
2018-09-22 05:00:00 17.8 0 Calma 9 Sudoeste 0 -- -- 100
2018-09-22 04:00:00 18.2 0 Calma 4 Sudeste 0 -- -- 100
2018-09-22 03:00:00 18.3 2 Este 5 Norte 0 -- -- 99
2018-09-22 02:00:00 18.3 2 Nordeste 6 Nordeste 0 -- -- 99
2018-09-22 01:00:00 18.3 3 Norte 7 Nordeste 0 -- -- 98
2018-09-22 00:00:00 18.3 3 Nordeste 6 Norte 0 -- -- 98
2018-09-21 23:00:00 18.3 4 Norte 13 Norte 0 -- -- 98
2018-09-21 22:00:00 18.4 9 Norte 17 Norte 0 -- -- 98
2018-09-21 21:00:00 18.8 3 Nordeste 10 Norte 0.2 -- -- 98
2018-09-21 20:00:00 19.3 4 Nordeste 16 Norte 0 -- -- 96
2018-09-21 19:00:00 20.3 8 Nordeste 22 Nordeste 0 -- -- 91
2018-09-21 18:00:00 21.4 7 Este 19 Nordeste 0 -- -- 81
2018-09-21 17:00:00 21.5 12 Nordeste 27 Nordeste 0 -- -- 83
2018-09-21 16:00:00 23.2 12 Nordeste 27 Norte 0 -- -- 74
2018-09-21 15:00:00 23.6 12 Nordeste 24 Este 0 -- -- 72
2018-09-21 14:00:00 24.5 12 Norte 21 Noroeste 0 -- -- 61
2018-09-21 13:00:00 24.8 3 Nordeste 12 Este 0 -- -- 64
2018-09-21 12:00:00 22.2 5 Sudoeste 12 Sudoeste 0 -- -- 85
2018-09-21 11:00:00 19.4 7 Sudoeste 12 Sudoeste 0 -- -- 98
2018-09-21 10:00:00 17.1 6 Sudoeste 13 Sudoeste 0 -- -- 100
2018-09-21 09:00:00 16.1 6 Sudoeste 10 Sudoeste 0 -- -- 100
2018-09-21 08:00:00 15.8 4 Sudoeste 11 Sudoeste 0 -- -- 100
2018-09-21 07:00:00 15.3 7 Sur 12 Sudoeste 0 -- -- 100
2018-09-21 06:00:00 15.3 4 Sudoeste 9 Sudoeste 0 -- -- 100
2018-09-21 05:00:00 15.9 0 Calma 8 Sudoeste 0 -- -- 100
2018-09-21 04:00:00 16.5 3 Sudoeste 9 Sudoeste 0 -- -- 100
2018-09-21 03:00:00 17 4 Sudoeste 7 Sudoeste 0 -- -- 99
2018-09-21 02:00:00 17.3 3 Sudoeste 6 Sudoeste 0 -- -- 98
2018-09-21 01:00:00 18.1 6 Sudoeste 10 Sudoeste 0 -- -- 97
2018-09-21 00:00:00 18.6 7 Sudoeste 10 Sudoeste 0 -- -- 95
2018-09-20 23:00:00 19 5 Sudoeste 12 Sur 0 -- -- 94
2018-09-20 22:00:00 19.5 7 Sudoeste 9 Sudoeste 0 -- -- 94
2018-09-20 21:00:00 20.1 0 Calma 9 Norte 0 -- -- 91
2018-09-20 20:00:00 20.8 6 Norte 18 Nordeste 0 -- -- 88
2018-09-20 19:00:00 23 10 Norte 23 Norte 0 -- -- 81
2018-09-20 18:00:00 24.1 16 Norte 28 Norte 0 -- -- 74
2018-09-20 17:00:00 25.5 15 Norte 25 Nordeste 0 -- -- 72
2018-09-20 16:00:00 25.9 17 Norte 27 Norte 0 -- -- 70
2018-09-20 15:00:00 26.5 15 Norte 24 Norte 0 -- -- 72
2018-09-20 14:00:00 26.7 10 Norte 17 Norte 0 -- -- 72
2018-09-20 13:00:00 26 10 Norte 16 Norte 0 -- -- 74
2018-09-20 12:00:00 25 5 Norte 9 Norte 0 -- -- 74
2018-09-20 11:00:00 24 2 Nordeste 8 Sur 0 -- -- 75
2018-09-20 10:00:00 21.1 3 Oeste 6 Oeste 0 -- -- 91
2018-09-20 09:00:00 19.4 3 Sudoeste 6 Sudoeste 0 -- -- 99
2018-09-20 08:00:00 19.1 0 Calma 3 Oeste 0 -- -- 99
2018-09-20 07:00:00 19.1 0 Calma 3 Sudoeste 0 -- -- 99
2018-09-20 06:00:00 19 0 Calma 5 Sudoeste 0 -- -- 99
2018-09-20 05:00:00 19 3 Sudoeste 6 Oeste 0 -- -- 98
2018-09-20 04:00:00 19 5 Sudoeste 6 Oeste 0 -- -- 98
2018-09-20 03:00:00 18.9 0 Calma 3 Sur 0 -- -- 98
2018-09-20 02:00:00 18.9 2 Sudoeste 3 Sudoeste 0 -- -- 98
2018-09-20 01:00:00 18.6 0 Calma 3 Sudeste 0 -- -- 98
2018-09-20 00:00:00 18.4 0 Calma 4 Sur 0 -- -- 97